sensor_id;sensor_type;location;lat;lon;timestamp;P1;durP1;ratioP1;P2;durP2;ratioP2
58222;SDS011;44020;50.890;15.796;2022-11-20T00:01:13;117.20;;;40.80;;
58222;SDS011;44020;50.890;15.796;2022-11-20T00:03:43;98.30;;;36.20;;
58222;SDS011;44020;50.890;15.796;2022-11-20T00:06:13;125.00;;;45.10;;
58222;SDS011;44020;50.890;15.796;2022-11-20T00:08:42;136.90;;;49.70;;
58222;SDS011;44020;50.890;15.796;2022-11-20T00:11:11;113.60;;;43.50;;
58222;SDS011;44020;50.890;15.796;2022-11-20T00:13:40;112.10;;;40.00;;
58222;SDS011;44020;50.890;15.796;2022-11-20T00:16:09;113.00;;;41.50;;
58222;SDS011;44020;50.890;15.796;2022-11-20T00:18:37;107.50;;;39.30;;
58222;SDS011;44020;50.890;15.796;2022-11-20T00:21:10;104.40;;;35.90;;
58222;SDS011;44020;50.890;15.796;2022-11-20T00:23:39;115.60;;;38.60;;
58222;SDS011;44020;50.890;15.796;2022-11-20T00:26:11;106.50;;;40.40;;
58222;SDS011;44020;50.890;15.796;2022-11-20T00:28:40;133.00;;;46.10;;
58222;SDS011;44020;50.890;15.796;2022-11-20T00:31:10;135.30;;;46.50;;
58222;SDS011;44020;50.890;15.796;2022-11-20T00:33:39;132.70;;;49.60;;
58222;SDS011;44020;50.890;15.796;2022-11-20T00:36:09;148.50;;;50.40;;
58222;SDS011;44020;50.890;15.796;2022-11-20T00:38:37;138.00;;;48.90;;
58222;SDS011;44020;50.890;15.796;2022-11-20T00:41:06;115.20;;;42.30;;
58222;SDS011;44020;50.890;15.796;2022-11-20T00:43:36;110.60;;;39.60;;
58222;SDS011;44020;50.890;15.796;2022-11-20T00:46:15;108.00;;;40.80;;
58222;SDS011;44020;50.890;15.796;2022-11-20T00:48:44;94.50;;;36.40;;
58222;SDS011;44020;50.890;15.796;2022-11-20T00:51:13;91.30;;;34.80;;
58222;SDS011;44020;50.890;15.796;2022-11-20T00:53:42;83.20;;;32.30;;
58222;SDS011;44020;50.890;15.796;2022-11-20T00:56:11;85.90;;;31.10;;
58222;SDS011;44020;50.890;15.796;2022-11-20T00:58:43;74.90;;;29.00;;
58222;SDS011;44020;50.890;15.796;2022-11-20T01:01:12;69.60;;;28.70;;
58222;SDS011;44020;50.890;15.796;2022-11-20T01:03:45;78.90;;;29.00;;
58222;SDS011;44020;50.890;15.796;2022-11-20T01:06:18;69.30;;;27.50;;
58222;SDS011;44020;50.890;15.796;2022-11-20T01:08:47;70.40;;;30.10;;
58222;SDS011;44020;50.890;15.796;2022-11-20T01:11:17;79.70;;;31.60;;
58222;SDS011;44020;50.890;15.796;2022-11-20T01:13:47;89.80;;;32.90;;
58222;SDS011;44020;50.890;15.796;2022-11-20T01:16:16;76.90;;;30.20;;
58222;SDS011;44020;50.890;15.796;2022-11-20T01:18:46;72.90;;;26.90;;
58222;SDS011;44020;50.890;15.796;2022-11-20T01:21:17;67.40;;;26.90;;
58222;SDS011;44020;50.890;15.796;2022-11-20T01:23:56;74.50;;;26.10;;
58222;SDS011;44020;50.890;15.796;2022-11-20T01:26:25;76.20;;;27.80;;
58222;SDS011;44020;50.890;15.796;2022-11-20T01:28:54;63.60;;;27.20;;
58222;SDS011;44020;50.890;15.796;2022-11-20T01:31:23;74.00;;;28.90;;
58222;SDS011;44020;50.890;15.796;2022-11-20T01:33:54;86.70;;;31.10;;
58222;SDS011;44020;50.890;15.796;2022-11-20T01:36:23;90.60;;;32.90;;
58222;SDS011;44020;50.890;15.796;2022-11-20T01:38:53;74.00;;;29.80;;
58222;SDS011;44020;50.890;15.796;2022-11-20T01:41:22;72.00;;;28.80;;
58222;SDS011;44020;50.890;15.796;2022-11-20T01:44:10;61.30;;;24.60;;
58222;SDS011;44020;50.890;15.796;2022-11-20T01:49:46;70.50;;;26.50;;
58222;SDS011;44020;50.890;15.796;2022-11-20T01:53:02;65.30;;;24.50;;
58222;SDS011;44020;50.890;15.796;2022-11-20T01:55:17;87.10;;;31.10;;
58222;SDS011;44020;50.890;15.796;2022-11-20T01:57:48;100.60;;;34.90;;
58222;SDS011;44020;50.890;15.796;2022-11-20T02:00:17;99.50;;;33.10;;
58222;SDS011;44020;50.890;15.796;2022-11-20T02:02:48;82.70;;;29.60;;
58222;SDS011;44020;50.890;15.796;2022-11-20T02:05:22;78.30;;;31.60;;
58222;SDS011;44020;50.890;15.796;2022-11-20T02:07:51;96.90;;;37.60;;
58222;SDS011;44020;50.890;15.796;2022-11-20T02:10:21;123.10;;;41.30;;
58222;SDS011;44020;50.890;15.796;2022-11-20T02:12:48;129.10;;;42.00;;
58222;SDS011;44020;50.890;15.796;2022-11-20T02:15:34;110.80;;;40.10;;
58222;SDS011;44020;50.890;15.796;2022-11-20T02:18:01;118.90;;;42.20;;
58222;SDS011;44020;50.890;15.796;2022-11-20T02:20:29;131.80;;;44.30;;
58222;SDS011;44020;50.890;15.796;2022-11-20T02:23:03;128.70;;;44.20;;
58222;SDS011;44020;50.890;15.796;2022-11-20T02:25:37;141.60;;;46.30;;
58222;SDS011;44020;50.890;15.796;2022-11-20T02:28:06;134.90;;;46.30;;
58222;SDS011;44020;50.890;15.796;2022-11-20T02:30:33;146.60;;;49.40;;
58222;SDS011;44020;50.890;15.796;2022-11-20T02:33:00;153.00;;;50.10;;
58222;SDS011;44020;50.890;15.796;2022-11-20T02:37:56;135.90;;;48.10;;
58222;SDS011;44020;50.890;15.796;2022-11-20T02:40:25;225.70;;;73.30;;
58222;SDS011;44020;50.890;15.796;2022-11-20T02:42:55;233.00;;;80.00;;
58222;SDS011;44020;50.890;15.796;2022-11-20T02:45:23;332.00;;;104.80;;
58222;SDS011;44020;50.890;15.796;2022-11-20T02:47:51;267.50;;;86.00;;
58222;SDS011;44020;50.890;15.796;2022-11-20T02:50:19;185.90;;;63.80;;
58222;SDS011;44020;50.890;15.796;2022-11-20T02:52:46;158.20;;;54.40;;
58222;SDS011;44020;50.890;15.796;2022-11-20T02:55:13;130.20;;;48.60;;
58222;SDS011;44020;50.890;15.796;2022-11-20T02:57:40;128.30;;;45.60;;
58222;SDS011;44020;50.890;15.796;2022-11-20T03:05:49;80.20;;;29.10;;
58222;SDS011;44020;50.890;15.796;2022-11-20T03:08:16;78.10;;;29.00;;
58222;SDS011;44020;50.890;15.796;2022-11-20T03:10:43;81.40;;;28.90;;
58222;SDS011;44020;50.890;15.796;2022-11-20T03:13:10;91.10;;;33.00;;
58222;SDS011;44020;50.890;15.796;2022-11-20T03:15:37;94.20;;;34.80;;
58222;SDS011;44020;50.890;15.796;2022-11-20T03:18:04;79.90;;;30.90;;
58222;SDS011;44020;50.890;15.796;2022-11-20T03:20:32;62.10;;;26.60;;
58222;SDS011;44020;50.890;15.796;2022-11-20T03:23:01;59.30;;;24.70;;
58222;SDS011;44020;50.890;15.796;2022-11-20T03:25:28;60.40;;;23.90;;
58222;SDS011;44020;50.890;15.796;2022-11-20T03:27:56;42.20;;;17.70;;
58222;SDS011;44020;50.890;15.796;2022-11-20T03:30:23;51.30;;;20.30;;
58222;SDS011;44020;50.890;15.796;2022-11-20T03:32:52;42.20;;;18.60;;
58222;SDS011;44020;50.890;15.796;2022-11-20T03:35:20;46.10;;;19.40;;
58222;SDS011;44020;50.890;15.796;2022-11-20T03:37:47;44.20;;;17.60;;
58222;SDS011;44020;50.890;15.796;2022-11-20T03:40:15;43.10;;;17.60;;
58222;SDS011;44020;50.890;15.796;2022-11-20T03:42:42;47.40;;;19.00;;
58222;SDS011;44020;50.890;15.796;2022-11-20T03:45:13;46.30;;;17.70;;
58222;SDS011;44020;50.890;15.796;2022-11-20T03:47:41;49.40;;;18.50;;
58222;SDS011;44020;50.890;15.796;2022-11-20T03:50:10;53.30;;;21.60;;
58222;SDS011;44020;50.890;15.796;2022-11-20T03:52:41;53.90;;;19.80;;
58222;SDS011;44020;50.890;15.796;2022-11-20T03:55:08;48.40;;;19.00;;
58222;SDS011;44020;50.890;15.796;2022-11-20T03:57:36;91.90;;;30.00;;
58222;SDS011;44020;50.890;15.796;2022-11-20T04:00:03;85.60;;;30.50;;
58222;SDS011;44020;50.890;15.796;2022-11-20T04:02:32;74.40;;;29.40;;
58222;SDS011;44020;50.890;15.796;2022-11-20T04:04:59;81.50;;;29.70;;
58222;SDS011;44020;50.890;15.796;2022-11-20T04:07:26;72.80;;;28.20;;
58222;SDS011;44020;50.890;15.796;2022-11-20T04:09:53;65.70;;;24.50;;
58222;SDS011;44020;50.890;15.796;2022-11-20T04:12:20;67.30;;;26.10;;
58222;SDS011;44020;50.890;15.796;2022-11-20T04:14:47;77.40;;;28.70;;
58222;SDS011;44020;50.890;15.796;2022-11-20T04:17:14;76.10;;;28.90;;
58222;SDS011;44020;50.890;15.796;2022-11-20T04:19:42;71.20;;;26.40;;
58222;SDS011;44020;50.890;15.796;2022-11-20T04:22:09;65.40;;;25.60;;
58222;SDS011;44020;50.890;15.796;2022-11-20T04:24:38;61.50;;;24.10;;
58222;SDS011;44020;50.890;15.796;2022-11-20T04:27:05;57.60;;;23.00;;
58222;SDS011;44020;50.890;15.796;2022-11-20T04:29:32;59.30;;;22.00;;
58222;SDS011;44020;50.890;15.796;2022-11-20T04:31:59;57.30;;;22.70;;
58222;SDS011;44020;50.890;15.796;2022-11-20T04:34:26;58.80;;;22.90;;
58222;SDS011;44020;50.890;15.796;2022-11-20T04:36:53;60.10;;;22.10;;
58222;SDS011;44020;50.890;15.796;2022-11-20T04:39:20;59.80;;;24.40;;
58222;SDS011;44020;50.890;15.796;2022-11-20T04:41:48;61.90;;;23.60;;
58222;SDS011;44020;50.890;15.796;2022-11-20T04:44:35;51.40;;;21.40;;
58222;SDS011;44020;50.890;15.796;2022-11-20T04:47:02;58.80;;;23.10;;
58222;SDS011;44020;50.890;15.796;2022-11-20T04:49:29;57.20;;;23.00;;
58222;SDS011;44020;50.890;15.796;2022-11-20T04:51:58;62.40;;;25.00;;
58222;SDS011;44020;50.890;15.796;2022-11-20T04:54:25;66.50;;;24.50;;
58222;SDS011;44020;50.890;15.796;2022-11-20T04:56:52;60.00;;;23.70;;
58222;SDS011;44020;50.890;15.796;2022-11-20T04:59:19;67.30;;;23.90;;
58222;SDS011;44020;50.890;15.796;2022-11-20T05:01:47;61.10;;;23.10;;
58222;SDS011;44020;50.890;15.796;2022-11-20T05:04:14;59.40;;;24.00;;
58222;SDS011;44020;50.890;15.796;2022-11-20T05:06:41;70.20;;;25.60;;
58222;SDS011;44020;50.890;15.796;2022-11-20T05:09:08;67.10;;;24.60;;
58222;SDS011;44020;50.890;15.796;2022-11-20T05:11:35;63.40;;;25.90;;
58222;SDS011;44020;50.890;15.796;2022-11-20T05:14:03;59.80;;;25.30;;
58222;SDS011;44020;50.890;15.796;2022-11-20T05:16:30;63.70;;;23.90;;
58222;SDS011;44020;50.890;15.796;2022-11-20T05:18:57;67.80;;;25.40;;
58222;SDS011;44020;50.890;15.796;2022-11-20T05:21:24;71.70;;;26.20;;
58222;SDS011;44020;50.890;15.796;2022-11-20T05:23:51;70.80;;;27.20;;
58222;SDS011;44020;50.890;15.796;2022-11-20T05:26:19;67.40;;;27.90;;
58222;SDS011;44020;50.890;15.796;2022-11-20T05:28:48;71.10;;;25.80;;
58222;SDS011;44020;50.890;15.796;2022-11-20T05:31:17;70.20;;;27.10;;
58222;SDS011;44020;50.890;15.796;2022-11-20T05:33:46;66.20;;;25.00;;
58222;SDS011;44020;50.890;15.796;2022-11-20T05:36:14;62.40;;;23.50;;
58222;SDS011;44020;50.890;15.796;2022-11-20T05:38:43;62.70;;;24.10;;
58222;SDS011;44020;50.890;15.796;2022-11-20T05:41:12;69.20;;;26.10;;
58222;SDS011;44020;50.890;15.796;2022-11-20T05:43:42;65.30;;;23.80;;
58222;SDS011;44020;50.890;15.796;2022-11-20T05:46:12;70.70;;;26.20;;
58222;SDS011;44020;50.890;15.796;2022-11-20T05:48:42;58.10;;;24.50;;
58222;SDS011;44020;50.890;15.796;2022-11-20T05:51:12;53.90;;;22.20;;
58222;SDS011;44020;50.890;15.796;2022-11-20T05:53:41;56.00;;;22.90;;
58222;SDS011;44020;50.890;15.796;2022-11-20T05:56:11;54.10;;;22.40;;
58222;SDS011;44020;50.890;15.796;2022-11-20T05:58:40;62.80;;;23.50;;
58222;SDS011;44020;50.890;15.796;2022-11-20T06:01:09;56.80;;;22.30;;
58222;SDS011;44020;50.890;15.796;2022-11-20T06:03:45;52.60;;;21.80;;
58222;SDS011;44020;50.890;15.796;2022-11-20T06:06:15;55.90;;;21.90;;
58222;SDS011;44020;50.890;15.796;2022-11-20T06:08:43;56.80;;;21.20;;
58222;SDS011;44020;50.890;15.796;2022-11-20T06:11:12;63.10;;;25.00;;
58222;SDS011;44020;50.890;15.796;2022-11-20T06:13:40;63.90;;;24.90;;
58222;SDS011;44020;50.890;15.796;2022-11-20T06:16:08;63.90;;;23.50;;
58222;SDS011;44020;50.890;15.796;2022-11-20T06:18:37;66.00;;;24.90;;
58222;SDS011;44020;50.890;15.796;2022-11-20T06:21:08;55.90;;;22.70;;
58222;SDS011;44020;50.890;15.796;2022-11-20T06:23:37;59.80;;;22.40;;
58222;SDS011;44020;50.890;15.796;2022-11-20T06:26:10;53.00;;;22.20;;
58222;SDS011;44020;50.890;15.796;2022-11-20T06:28:48;50.90;;;20.50;;
58222;SDS011;44020;50.890;15.796;2022-11-20T06:31:17;51.70;;;21.20;;
58222;SDS011;44020;50.890;15.796;2022-11-20T06:33:46;52.30;;;21.00;;
58222;SDS011;44020;50.890;15.796;2022-11-20T06:36:14;52.30;;;20.40;;
58222;SDS011;44020;50.890;15.796;2022-11-20T06:38:43;53.80;;;21.00;;
58222;SDS011;44020;50.890;15.796;2022-11-20T06:41:20;58.30;;;20.80;;
58222;SDS011;44020;50.890;15.796;2022-11-20T06:43:48;76.00;;;27.30;;
58222;SDS011;44020;50.890;15.796;2022-11-20T06:46:17;83.40;;;29.50;;
58222;SDS011;44020;50.890;15.796;2022-11-20T06:48:46;49.10;;;20.90;;
58222;SDS011;44020;50.890;15.796;2022-11-20T06:51:14;55.30;;;19.90;;
58222;SDS011;44020;50.890;15.796;2022-11-20T06:53:41;45.80;;;19.00;;
58222;SDS011;44020;50.890;15.796;2022-11-20T06:56:09;55.60;;;19.70;;
58222;SDS011;44020;50.890;15.796;2022-11-20T06:58:36;55.30;;;19.90;;
58222;SDS011;44020;50.890;15.796;2022-11-20T07:01:05;47.70;;;19.30;;
58222;SDS011;44020;50.890;15.796;2022-11-20T07:03:34;53.10;;;19.10;;
58222;SDS011;44020;50.890;15.796;2022-11-20T07:06:02;45.80;;;18.50;;
58222;SDS011;44020;50.890;15.796;2022-11-20T07:08:29;47.90;;;18.70;;
58222;SDS011;44020;50.890;15.796;2022-11-20T07:10:57;52.30;;;20.50;;
58222;SDS011;44020;50.890;15.796;2022-11-20T07:13:29;53.50;;;21.50;;
58222;SDS011;44020;50.890;15.796;2022-11-20T07:16:03;52.00;;;21.00;;
58222;SDS011;44020;50.890;15.796;2022-11-20T07:18:32;51.70;;;22.10;;
58222;SDS011;44020;50.890;15.796;2022-11-20T07:21:00;55.10;;;22.60;;
58222;SDS011;44020;50.890;15.796;2022-11-20T07:23:32;67.10;;;29.40;;
58222;SDS011;44020;50.890;15.796;2022-11-20T07:26:06;68.20;;;31.60;;
58222;SDS011;44020;50.890;15.796;2022-11-20T07:28:35;66.60;;;29.60;;
58222;SDS011;44020;50.890;15.796;2022-11-20T07:31:03;58.60;;;27.70;;
58222;SDS011;44020;50.890;15.796;2022-11-20T07:33:31;52.70;;;24.90;;
58222;SDS011;44020;50.890;15.796;2022-11-20T07:35:59;55.60;;;19.60;;
58222;SDS011;44020;50.890;15.796;2022-11-20T07:38:26;43.50;;;18.00;;
58222;SDS011;44020;50.890;15.796;2022-11-20T07:40:54;41.70;;;15.50;;
58222;SDS011;44020;50.890;15.796;2022-11-20T07:43:23;40.40;;;14.70;;
58222;SDS011;44020;50.890;15.796;2022-11-20T07:45:51;38.00;;;14.60;;
58222;SDS011;44020;50.890;15.796;2022-11-20T07:48:19;36.70;;;15.40;;
58222;SDS011;44020;50.890;15.796;2022-11-20T07:50:46;49.00;;;21.10;;
58222;SDS011;44020;50.890;15.796;2022-11-20T07:53:13;42.80;;;17.50;;
58222;SDS011;44020;50.890;15.796;2022-11-20T07:55:40;41.20;;;19.10;;
58222;SDS011;44020;50.890;15.796;2022-11-20T07:58:07;35.90;;;14.70;;
58222;SDS011;44020;50.890;15.796;2022-11-20T08:00:34;30.40;;;14.20;;
58222;SDS011;44020;50.890;15.796;2022-11-20T08:03:04;29.50;;;13.20;;
58222;SDS011;44020;50.890;15.796;2022-11-20T08:05:32;28.50;;;11.90;;
58222;SDS011;44020;50.890;15.796;2022-11-20T08:08:00;29.80;;;12.60;;
58222;SDS011;44020;50.890;15.796;2022-11-20T08:10:27;30.30;;;12.60;;
58222;SDS011;44020;50.890;15.796;2022-11-20T08:12:54;30.40;;;13.30;;
58222;SDS011;44020;50.890;15.796;2022-11-20T08:15:40;43.20;;;19.20;;
58222;SDS011;44020;50.890;15.796;2022-11-20T08:18:08;55.80;;;23.20;;
58222;SDS011;44020;50.890;15.796;2022-11-20T08:20:37;55.90;;;23.20;;
58222;SDS011;44020;50.890;15.796;2022-11-20T08:23:05;42.10;;;18.80;;
58222;SDS011;44020;50.890;15.796;2022-11-20T08:25:35;41.30;;;17.50;;
58222;SDS011;44020;50.890;15.796;2022-11-20T08:28:04;43.00;;;17.10;;
58222;SDS011;44020;50.890;15.796;2022-11-20T08:30:34;45.40;;;17.80;;
58222;SDS011;44020;50.890;15.796;2022-11-20T08:33:05;41.50;;;17.30;;
58222;SDS011;44020;50.890;15.796;2022-11-20T08:38:06;42.90;;;16.60;;
58222;SDS011;44020;50.890;15.796;2022-11-20T08:40:33;41.70;;;16.70;;
58222;SDS011;44020;50.890;15.796;2022-11-20T08:43:00;36.40;;;17.00;;
58222;SDS011;44020;50.890;15.796;2022-11-20T08:45:28;33.80;;;16.00;;
58222;SDS011;44020;50.890;15.796;2022-11-20T08:47:59;26.80;;;12.60;;
58222;SDS011;44020;50.890;15.796;2022-11-20T08:50:27;31.40;;;13.70;;
58222;SDS011;44020;50.890;15.796;2022-11-20T08:52:54;21.80;;;10.30;;
58222;SDS011;44020;50.890;15.796;2022-11-20T08:55:21;25.40;;;11.00;;
58222;SDS011;44020;50.890;15.796;2022-11-20T08:57:48;28.60;;;11.90;;
58222;SDS011;44020;50.890;15.796;2022-11-20T09:00:16;27.10;;;12.20;;
58222;SDS011;44020;50.890;15.796;2022-11-20T09:02:43;25.20;;;12.20;;
58222;SDS011;44020;50.890;15.796;2022-11-20T09:05:10;26.60;;;11.10;;
58222;SDS011;44020;50.890;15.796;2022-11-20T09:07:37;27.70;;;13.10;;
58222;SDS011;44020;50.890;15.796;2022-11-20T09:10:04;41.00;;;19.20;;
58222;SDS011;44020;50.890;15.796;2022-11-20T09:12:32;40.10;;;17.20;;
58222;SDS011;44020;50.890;15.796;2022-11-20T09:14:59;36.90;;;17.70;;
58222;SDS011;44020;50.890;15.796;2022-11-20T09:17:26;41.00;;;17.00;;
58222;SDS011;44020;50.890;15.796;2022-11-20T09:19:53;40.90;;;17.60;;
58222;SDS011;44020;50.890;15.796;2022-11-20T09:22:20;32.20;;;15.80;;
58222;SDS011;44020;50.890;15.796;2022-11-20T09:24:47;35.00;;;14.40;;
58222;SDS011;44020;50.890;15.796;2022-11-20T09:27:15;34.30;;;14.80;;
58222;SDS011;44020;50.890;15.796;2022-11-20T09:29:51;34.10;;;15.10;;
58222;SDS011;44020;50.890;15.796;2022-11-20T09:32:19;35.10;;;13.20;;
58222;SDS011;44020;50.890;15.796;2022-11-20T09:34:46;26.20;;;10.00;;
58222;SDS011;44020;50.890;15.796;2022-11-20T09:37:13;23.90;;;10.80;;
58222;SDS011;44020;50.890;15.796;2022-11-20T09:39:40;34.40;;;14.90;;
58222;SDS011;44020;50.890;15.796;2022-11-20T09:45:20;32.90;;;14.00;;
58222;SDS011;44020;50.890;15.796;2022-11-20T09:50:37;13.80;;;6.50;;
58222;SDS011;44020;50.890;15.796;2022-11-20T09:53:32;17.70;;;6.80;;
58222;SDS011;44020;50.890;15.796;2022-11-20T09:56:17;16.90;;;7.60;;
58222;SDS011;44020;50.890;15.796;2022-11-20T09:58:47;19.60;;;9.30;;
58222;SDS011;44020;50.890;15.796;2022-11-20T10:01:18;22.40;;;10.60;;
58222;SDS011;44020;50.890;15.796;2022-11-20T10:06:39;20.50;;;10.20;;
58222;SDS011;44020;50.890;15.796;2022-11-20T10:09:27;20.90;;;9.70;;
58222;SDS011;44020;50.890;15.796;2022-11-20T10:12:03;18.70;;;8.80;;
58222;SDS011;44020;50.890;15.796;2022-11-20T10:14:52;21.70;;;9.70;;
58222;SDS011;44020;50.890;15.796;2022-11-20T10:20:17;29.80;;;11.70;;
58222;SDS011;44020;50.890;15.796;2022-11-20T10:23:00;24.10;;;9.60;;
58222;SDS011;44020;50.890;15.796;2022-11-20T10:31:33;24.70;;;10.10;;
58222;SDS011;44020;50.890;15.796;2022-11-20T10:34:07;38.10;;;13.20;;
58222;SDS011;44020;50.890;15.796;2022-11-20T10:36:57;28.10;;;12.20;;
58222;SDS011;44020;50.890;15.796;2022-11-20T10:39:35;42.00;;;18.50;;
58222;SDS011;44020;50.890;15.796;2022-11-20T10:42:37;26.10;;;11.00;;
58222;SDS011;44020;50.890;15.796;2022-11-20T10:45:15;23.20;;;11.50;;
58222;SDS011;44020;50.890;15.796;2022-11-20T10:47:52;25.40;;;11.00;;
58222;SDS011;44020;50.890;15.796;2022-11-20T10:50:23;22.70;;;11.20;;
58222;SDS011;44020;50.890;15.796;2022-11-20T10:55:39;31.20;;;13.40;;
58222;SDS011;44020;50.890;15.796;2022-11-20T11:00:45;26.60;;;10.50;;
58222;SDS011;44020;50.890;15.796;2022-11-20T11:08:42;21.10;;;8.60;;
58222;SDS011;44020;50.890;15.796;2022-11-20T11:13:47;18.20;;;8.70;;
58222;SDS011;44020;50.890;15.796;2022-11-20T11:16:33;29.70;;;11.70;;
58222;SDS011;44020;50.890;15.796;2022-11-20T11:19:18;23.70;;;9.90;;
58222;SDS011;44020;50.890;15.796;2022-11-20T11:21:49;26.00;;;10.10;;
58222;SDS011;44020;50.890;15.796;2022-11-20T11:24:29;29.00;;;13.00;;
58222;SDS011;44020;50.890;15.796;2022-11-20T11:27:01;25.70;;;11.90;;
58222;SDS011;44020;50.890;15.796;2022-11-20T11:29:33;26.80;;;11.60;;
58222;SDS011;44020;50.890;15.796;2022-11-20T11:34:42;30.70;;;15.60;;
58222;SDS011;44020;50.890;15.796;2022-11-20T11:37:13;30.30;;;17.30;;
58222;SDS011;44020;50.890;15.796;2022-11-20T11:39:44;20.20;;;9.30;;
58222;SDS011;44020;50.890;15.796;2022-11-20T11:42:16;20.90;;;9.00;;
58222;SDS011;44020;50.890;15.796;2022-11-20T11:44:46;25.00;;;10.70;;
58222;SDS011;44020;50.890;15.796;2022-11-20T11:50:14;16.20;;;7.90;;
58222;SDS011;44020;50.890;15.796;2022-11-20T11:55:14;17.20;;;8.00;;
58222;SDS011;44020;50.890;15.796;2022-11-20T11:58:31;14.00;;;6.70;;
58222;SDS011;44020;50.890;15.796;2022-11-20T12:00:45;15.90;;;6.90;;
58222;SDS011;44020;50.890;15.796;2022-11-20T12:05:57;14.80;;;6.30;;
58222;SDS011;44020;50.890;15.796;2022-11-20T12:08:32;13.90;;;6.20;;
58222;SDS011;44020;50.890;15.796;2022-11-20T12:11:19;17.00;;;7.30;;
58222;SDS011;44020;50.890;15.796;2022-11-20T12:16:37;23.90;;;10.30;;
58222;SDS011;44020;50.890;15.796;2022-11-20T12:19:12;21.40;;;10.10;;
58222;SDS011;44020;50.890;15.796;2022-11-20T12:25:03;17.70;;;8.10;;
58222;SDS011;44020;50.890;15.796;2022-11-20T12:30:24;27.80;;;12.60;;
58222;SDS011;44020;50.890;15.796;2022-11-20T12:35:32;35.00;;;13.90;;
58222;SDS011;44020;50.890;15.796;2022-11-20T12:50:07;21.10;;;9.90;;
58222;SDS011;44020;50.890;15.796;2022-11-20T13:07:03;22.20;;;10.80;;
58222;SDS011;44020;50.890;15.796;2022-11-20T13:09:37;29.30;;;11.90;;
58222;SDS011;44020;50.890;15.796;2022-11-20T13:20:17;89.40;;;33.50;;
58222;SDS011;44020;50.890;15.796;2022-11-20T13:22:52;123.00;;;39.10;;
58222;SDS011;44020;50.890;15.796;2022-11-20T13:25:22;98.90;;;33.90;;
58222;SDS011;44020;50.890;15.796;2022-11-20T13:27:49;114.00;;;34.20;;
58222;SDS011;44020;50.890;15.796;2022-11-20T13:30:20;57.50;;;24.80;;
58222;SDS011;44020;50.890;15.796;2022-11-20T13:32:52;42.00;;;21.70;;
58222;SDS011;44020;50.890;15.796;2022-11-20T13:35:28;44.70;;;21.70;;
58222;SDS011;44020;50.890;15.796;2022-11-20T13:38:10;90.10;;;33.80;;
58222;SDS011;44020;50.890;15.796;2022-11-20T13:40:50;120.30;;;46.10;;
58222;SDS011;44020;50.890;15.796;2022-11-20T13:43:39;54.30;;;23.20;;
58222;SDS011;44020;50.890;15.796;2022-11-20T13:46:08;35.70;;;16.40;;
58222;SDS011;44020;50.890;15.796;2022-11-20T13:48:39;69.10;;;25.80;;
58222;SDS011;44020;50.890;15.796;2022-11-20T13:57:17;41.80;;;18.10;;
58222;SDS011;44020;50.890;15.796;2022-11-20T14:02:47;58.30;;;21.10;;
58222;SDS011;44020;50.890;15.796;2022-11-20T14:05:40;40.40;;;17.10;;
58222;SDS011;44020;50.890;15.796;2022-11-20T14:08:23;36.60;;;14.10;;
58222;SDS011;44020;50.890;15.796;2022-11-20T14:13:55;73.00;;;30.70;;
58222;SDS011;44020;50.890;15.796;2022-11-20T14:18:53;33.00;;;13.80;;
58222;SDS011;44020;50.890;15.796;2022-11-20T14:21:26;27.40;;;12.20;;
58222;SDS011;44020;50.890;15.796;2022-11-20T14:24:05;62.10;;;26.40;;
58222;SDS011;44020;50.890;15.796;2022-11-20T14:26:33;57.10;;;20.20;;
58222;SDS011;44020;50.890;15.796;2022-11-20T14:29:00;38.60;;;16.90;;
58222;SDS011;44020;50.890;15.796;2022-11-20T14:31:28;57.00;;;19.20;;
58222;SDS011;44020;50.890;15.796;2022-11-20T14:33:56;85.10;;;26.70;;
58222;SDS011;44020;50.890;15.796;2022-11-20T14:36:24;82.10;;;33.20;;
58222;SDS011;44020;50.890;15.796;2022-11-20T14:38:52;127.50;;;55.20;;
58222;SDS011;44020;50.890;15.796;2022-11-20T14:41:22;203.40;;;86.60;;
58222;SDS011;44020;50.890;15.796;2022-11-20T14:43:56;128.40;;;55.00;;
58222;SDS011;44020;50.890;15.796;2022-11-20T14:46:25;63.80;;;32.80;;
58222;SDS011;44020;50.890;15.796;2022-11-20T14:48:55;70.50;;;31.90;;
58222;SDS011;44020;50.890;15.796;2022-11-20T14:56:38;102.20;;;34.20;;
58222;SDS011;44020;50.890;15.796;2022-11-20T14:59:05;76.50;;;30.60;;
58222;SDS011;44020;50.890;15.796;2022-11-20T15:01:33;69.20;;;29.00;;
58222;SDS011;44020;50.890;15.796;2022-11-20T15:06:28;51.70;;;23.80;;
58222;SDS011;44020;50.890;15.796;2022-11-20T15:08:56;60.10;;;25.10;;
58222;SDS011;44020;50.890;15.796;2022-11-20T15:11:29;65.60;;;27.10;;
58222;SDS011;44020;50.890;15.796;2022-11-20T15:13:58;65.20;;;27.30;;
58222;SDS011;44020;50.890;15.796;2022-11-20T15:16:31;77.70;;;30.30;;
58222;SDS011;44020;50.890;15.796;2022-11-20T15:18:59;65.80;;;29.40;;
58222;SDS011;44020;50.890;15.796;2022-11-20T15:21:29;45.00;;;22.50;;
58222;SDS011;44020;50.890;15.796;2022-11-20T15:23:56;48.30;;;22.20;;
58222;SDS011;44020;50.890;15.796;2022-11-20T15:26:24;51.30;;;22.80;;
58222;SDS011;44020;50.890;15.796;2022-11-20T15:28:54;109.50;;;51.10;;
58222;SDS011;44020;50.890;15.796;2022-11-20T15:31:22;113.60;;;54.70;;
58222;SDS011;44020;50.890;15.796;2022-11-20T15:33:50;100.40;;;48.70;;
58222;SDS011;44020;50.890;15.796;2022-11-20T15:36:17;60.10;;;26.80;;
58222;SDS011;44020;50.890;15.796;2022-11-20T15:38:45;72.10;;;34.40;;
58222;SDS011;44020;50.890;15.796;2022-11-20T15:41:12;57.80;;;28.40;;
58222;SDS011;44020;50.890;15.796;2022-11-20T15:43:39;46.30;;;22.90;;
58222;SDS011;44020;50.890;15.796;2022-11-20T15:46:11;36.80;;;17.70;;
58222;SDS011;44020;50.890;15.796;2022-11-20T15:48:43;50.20;;;20.30;;
58222;SDS011;44020;50.890;15.796;2022-11-20T15:51:28;89.90;;;32.80;;
58222;SDS011;44020;50.890;15.796;2022-11-20T15:54:14;87.60;;;33.70;;
58222;SDS011;44020;50.890;15.796;2022-11-20T15:56:44;91.70;;;34.80;;
58222;SDS011;44020;50.890;15.796;2022-11-20T15:59:11;87.10;;;32.80;;
58222;SDS011;44020;50.890;15.796;2022-11-20T16:01:41;214.50;;;65.60;;
58222;SDS011;44020;50.890;15.796;2022-11-20T16:04:13;111.60;;;39.50;;
58222;SDS011;44020;50.890;15.796;2022-11-20T16:09:09;62.00;;;26.30;;
58222;SDS011;44020;50.890;15.796;2022-11-20T16:11:36;79.10;;;30.10;;
58222;SDS011;44020;50.890;15.796;2022-11-20T16:14:04;75.90;;;30.30;;
58222;SDS011;44020;50.890;15.796;2022-11-20T16:16:50;89.60;;;33.10;;
58222;SDS011;44020;50.890;15.796;2022-11-20T16:19:18;83.90;;;32.60;;
58222;SDS011;44020;50.890;15.796;2022-11-20T16:21:45;83.00;;;31.70;;
58222;SDS011;44020;50.890;15.796;2022-11-20T16:24:13;78.80;;;30.20;;
58222;SDS011;44020;50.890;15.796;2022-11-20T16:26:42;96.50;;;34.80;;
58222;SDS011;44020;50.890;15.796;2022-11-20T16:29:09;101.10;;;34.40;;
58222;SDS011;44020;50.890;15.796;2022-11-20T16:31:37;69.00;;;26.90;;
58222;SDS011;44020;50.890;15.796;2022-11-20T16:34:05;49.60;;;20.10;;